createdAt,value
2023-01-02T00:00:44.123Z,20.33
2023-01-02T00:03:12.107Z,15.35
2023-01-02T00:05:40.847Z,11.18
2023-01-02T00:08:08.274Z,13.15
2023-01-02T00:10:36.553Z,16.67
2023-01-02T00:13:03.817Z,13.65
2023-01-02T00:15:31.271Z,12.85
2023-01-02T00:17:58.630Z,23.85
2023-01-02T00:20:26.472Z,15.07
2023-01-02T00:22:53.726Z,13.77
2023-01-02T00:25:21.237Z,13.13
2023-01-02T00:27:48.753Z,14.70
2023-01-02T00:30:16.060Z,11.45
2023-01-02T00:32:43.439Z,14.15
2023-01-02T00:35:10.806Z,12.30
2023-01-02T00:37:38.140Z,11.82
2023-01-02T00:40:06.124Z,14.68
2023-01-02T00:42:33.466Z,15.18
2023-01-02T00:45:00.700Z,15.45
2023-01-02T00:47:27.986Z,17.95
2023-01-02T00:49:55.246Z,13.23
2023-01-02T00:52:22.563Z,18.30
2023-01-02T00:54:49.850Z,13.55
2023-01-02T00:57:17.204Z,16.15
2023-01-02T00:59:44.600Z,20.55
2023-01-02T01:02:12.239Z,17.75
2023-01-02T01:04:39.829Z,17.95
2023-01-02T01:07:07.233Z,23.40
2023-01-02T01:09:34.792Z,36.50
2023-01-02T01:12:04.869Z,20.33
2023-01-02T01:14:32.691Z,20.73
2023-01-02T01:17:00.722Z,20.65
2023-01-02T01:19:36.070Z,18.88
2023-01-02T01:22:03.504Z,18.15
2023-01-02T01:24:31.146Z,21.73
2023-01-02T01:26:58.590Z,19.60
2023-01-02T01:29:25.950Z,19.73
2023-01-02T01:31:53.333Z,25.42
2023-01-02T01:34:20.788Z,21.17
2023-01-02T01:36:48.033Z,19.05
2023-01-02T01:39:15.365Z,27.17
2023-01-02T01:41:43.180Z,26.08
2023-01-02T01:44:43.273Z,26.77
2023-01-02T01:47:19.258Z,25.23
2023-01-02T01:49:47.685Z,27.27
2023-01-02T01:52:20.580Z,25.90
2023-01-02T01:54:56.961Z,29.30
2023-01-02T01:57:37.230Z,29.42
2023-01-02T02:00:05.672Z,35.50
2023-01-02T02:02:34.235Z,36.08
2023-01-02T02:05:05.800Z,37.95
2023-01-02T02:07:37.065Z,33.45
2023-01-02T02:10:08.736Z,38.20
2023-01-02T02:12:37.320Z,32.88
2023-01-02T02:15:07.372Z,32.60
2023-01-02T02:17:53.001Z,40.97
2023-01-02T02:20:30.899Z,37.83
2023-01-02T02:23:10.660Z,47.33
2023-01-02T02:26:02.665Z,37.47
2023-01-02T02:28:45.695Z,33.45
2023-01-02T02:31:29.753Z,43.78
2023-01-02T02:34:05.170Z,40.08
2023-01-02T02:36:45.363Z,47.78
2023-01-02T02:39:33.811Z,35.55
2023-01-02T02:42:42.132Z,36.05
2023-01-02T02:45:16.589Z,39.30
2023-01-02T02:48:25.415Z,33.42
2023-01-02T02:51:08.267Z,39.83
2023-01-02T02:53:42.740Z,35.88
2023-01-02T02:56:11.883Z,31.17
2023-01-02T02:58:42.054Z,30.63
2023-01-02T03:01:16.323Z,37.03
2023-01-02T03:03:44.363Z,33.72
2023-01-02T03:06:22.206Z,35.13
2023-01-02T03:09:41.259Z,29.38
2023-01-02T03:12:33.002Z,26.73
2023-01-02T03:15:12.889Z,26.40
2023-01-02T03:18:02.096Z,32.27
2023-01-02T03:20:46.245Z,25.63
2023-01-02T03:23:21.434Z,29.77
2023-01-02T03:25:49.292Z,30.55
2023-01-02T03:28:20.367Z,26.38
2023-01-02T03:30:51.768Z,30.90
2023-01-02T03:33:26.074Z,27.17
2023-01-02T03:36:10.888Z,29.65
2023-01-02T03:38:49.569Z,31.65
2023-01-02T03:41:25.866Z,30.30
2023-01-02T03:43:57.322Z,30.15
2023-01-02T03:46:27.699Z,29.60
2023-01-02T03:49:10.576Z,26.88
2023-01-02T03:51:38.198Z,31.17
2023-01-02T03:54:06.807Z,25.40
2023-01-02T03:57:14.518Z,31.33
2023-01-02T04:00:10.708Z,31.25
2023-01-02T04:03:03.708Z,23.77
2023-01-02T04:05:50.874Z,27.17
2023-01-02T04:08:50.753Z,31.50
2023-01-02T04:11:21.662Z,31.67
2023-01-02T04:13:56.421Z,25.80
2023-01-02T04:16:30.023Z,21.20
2023-01-02T04:19:22.892Z,31.27
2023-01-02T04:21:53.972Z,27.70
2023-01-02T04:24:34.161Z,30.70
2023-01-02T04:27:23.115Z,28.50
2023-01-02T04:29:51.503Z,32.38
2023-01-02T04:32:27.846Z,28.13
2023-01-02T04:34:56.873Z,31.30
2023-01-02T04:37:28.476Z,29.10
2023-01-02T04:40:04.097Z,29.70
2023-01-02T04:42:31.603Z,35.22
2023-01-02T04:44:59.150Z,26.38
2023-01-02T04:47:26.527Z,29.33
2023-01-02T04:49:53.907Z,29.98
2023-01-02T04:52:21.390Z,30.98
2023-01-02T04:54:48.665Z,32.53
2023-01-02T04:57:16.103Z,26.98
2023-01-02T04:59:44.957Z,23.58
2023-01-02T05:02:13.837Z,30.60
2023-01-02T05:04:41.155Z,29.85
2023-01-02T05:07:08.497Z,28.67
2023-01-02T05:09:35.767Z,31.92
2023-01-02T05:12:03.177Z,38.88
2023-01-02T05:14:31.247Z,25.48
2023-01-02T05:16:58.793Z,27.13
2023-01-02T05:19:26.065Z,22.45
2023-01-02T05:22:13.066Z,21.27
2023-01-02T05:24:41.457Z,22.35
2023-01-02T05:27:08.717Z,16.33
2023-01-02T05:29:36.030Z,20.95
2023-01-02T05:32:03.402Z,16.13
2023-01-02T05:34:30.824Z,21.63
2023-01-02T05:36:58.189Z,20.27
2023-01-02T05:39:25.440Z,18.17
2023-01-02T05:41:53.206Z,26.95
2023-01-02T05:44:21.702Z,26.65
2023-01-02T05:46:48.943Z,22.88
2023-01-02T05:49:16.263Z,20.58
2023-01-02T05:51:43.559Z,23.48
2023-01-02T05:54:10.978Z,23.88
2023-01-02T05:56:38.304Z,27.42
2023-01-02T05:59:08.495Z,27.50
2023-01-02T06:01:36.702Z,31.55
2023-01-02T06:04:04.254Z,23.55
2023-01-02T06:06:34.480Z,20.27
2023-01-02T06:09:03.488Z,24.00
2023-01-02T06:11:31.483Z,22.40
2023-01-02T06:13:59.131Z,26.08
2023-01-02T06:16:27.042Z,29.90
2023-01-02T06:18:55.569Z,23.40
2023-01-02T06:21:22.991Z,26.70
2023-01-02T06:23:55.618Z,26.75
2023-01-02T06:26:26.021Z,19.23
2023-01-02T06:28:57.868Z,21.98
2023-01-02T06:31:27.628Z,25.77
2023-01-02T06:34:00.358Z,20.02
2023-01-02T06:36:31.613Z,18.08
2023-01-02T06:38:59.202Z,22.35
2023-01-02T06:41:26.879Z,15.48
2023-01-02T06:43:54.799Z,20.60
2023-01-02T06:46:23.697Z,14.40
2023-01-02T06:48:51.443Z,23.65
2023-01-02T06:51:21.258Z,14.13
2023-01-02T06:53:51.089Z,17.20
2023-01-02T06:56:20.035Z,16.73
2023-01-02T06:58:50.012Z,17.90
2023-01-02T07:01:22.312Z,16.63
2023-01-02T07:03:51.263Z,9.02
2023-01-02T07:06:21.664Z,6.20
2023-01-02T07:08:50.605Z,7.72
2023-01-02T07:11:25.224Z,6.13
2023-01-02T07:13:54.418Z,7.10
2023-01-02T07:16:23.383Z,6.38
2023-01-02T07:18:54.770Z,8.00
2023-01-02T07:21:22.938Z,9.10
2023-01-02T07:23:51.763Z,9.25
2023-01-02T07:26:19.308Z,9.55
2023-01-02T07:28:47.605Z,9.38
2023-01-02T07:31:18.041Z,7.32
2023-01-02T07:33:46.333Z,9.68
2023-01-02T07:36:16.595Z,6.60
2023-01-02T07:38:44.411Z,6.97
2023-01-02T07:41:16.454Z,5.45
2023-01-02T07:43:45.569Z,9.52
2023-01-02T07:46:15.370Z,7.38
2023-01-02T07:48:43.155Z,5.40
2023-01-02T07:51:11.640Z,4.35
2023-01-02T07:53:41.701Z,5.93
2023-01-02T07:56:10.563Z,3.88
2023-01-02T07:58:37.826Z,4.53
2023-01-02T08:01:10.573Z,3.40
2023-01-02T08:03:38.111Z,4.45
2023-01-02T08:06:11.882Z,4.13
2023-01-02T08:08:39.923Z,7.07
2023-01-02T08:11:09.258Z,6.38
2023-01-02T08:13:37.227Z,6.07
2023-01-02T08:16:13.301Z,6.18
2023-01-02T08:18:40.808Z,3.55
2023-01-02T08:21:08.867Z,4.40
2023-01-02T08:23:36.629Z,4.40
2023-01-02T08:26:08.671Z,5.22
2023-01-02T08:28:37.413Z,4.07
2023-01-02T08:31:13.265Z,3.00
2023-01-02T08:33:40.800Z,3.42
2023-01-02T08:36:09.134Z,4.80
2023-01-02T08:38:36.945Z,3.47
2023-01-02T08:41:04.648Z,1.70
2023-01-02T08:43:35.439Z,2.63
2023-01-02T08:48:34.221Z,2.05
2023-01-02T08:51:02.651Z,4.60
2023-01-02T08:53:30.173Z,3.42
2023-01-02T08:56:18.896Z,3.40
2023-01-02T08:58:52.839Z,4.22
2023-01-02T09:01:22.644Z,5.63
2023-01-02T09:03:51.336Z,3.97
2023-01-02T09:06:22.100Z,3.65
2023-01-02T09:08:53.084Z,2.80
2023-01-02T09:11:24.605Z,2.95
2023-01-02T09:13:52.902Z,3.42
2023-01-02T09:16:21.208Z,3.72
2023-01-02T09:18:50.045Z,3.13
2023-01-02T09:21:17.763Z,6.32
2023-01-02T09:23:45.252Z,4.95
2023-01-02T09:26:13.841Z,3.88
2023-01-02T09:28:41.437Z,9.88
2023-01-02T09:31:13.619Z,4.85
2023-01-02T09:33:43.081Z,7.15
2023-01-02T09:36:13.074Z,5.60
2023-01-02T09:38:40.909Z,7.60
2023-01-02T09:41:26.920Z,6.13
2023-01-02T09:44:06.804Z,8.82
2023-01-02T09:46:41.595Z,8.20
2023-01-02T09:49:19.812Z,3.38
2023-01-02T09:51:47.626Z,3.10
2023-01-02T09:54:33.873Z,4.45
2023-01-02T09:57:20.032Z,3.78
2023-01-02T10:00:04.039Z,6.25
2023-01-02T10:03:04.165Z,5.20
2023-01-02T10:05:40.740Z,4.53
2023-01-02T10:08:33.335Z,4.25
2023-01-02T10:11:20.312Z,2.47
2023-01-02T10:16:48.706Z,4.88
2023-01-02T10:19:22.713Z,5.10
2023-01-02T10:21:54.683Z,4.50
2023-01-02T10:24:45.024Z,4.63
2023-01-02T10:27:17.995Z,3.47
2023-01-02T10:30:18.590Z,3.88
2023-01-02T10:32:57.256Z,4.22
2023-01-02T10:35:42.038Z,3.08
2023-01-02T10:38:14.869Z,3.85
2023-01-02T10:40:46.029Z,5.88
2023-01-02T10:43:14.864Z,3.30
2023-01-02T10:45:42.852Z,3.15
2023-01-02T10:48:11.412Z,3.72
2023-01-02T10:50:43.056Z,3.75
2023-01-02T10:53:22.530Z,5.45
2023-01-02T10:55:52.323Z,6.78
2023-01-02T10:58:28.086Z,2.72
2023-01-02T11:01:04.676Z,4.80
2023-01-02T11:03:32.925Z,4.30
2023-01-02T11:06:23.288Z,6.10
2023-01-02T11:09:00.928Z,3.30
2023-01-02T11:11:30.106Z,4.20
2023-01-02T11:14:07.561Z,1.67
2023-01-02T11:16:40.343Z,1.80
2023-01-02T11:19:20.446Z,2.97
2023-01-02T11:21:52.827Z,4.47
2023-01-02T11:24:25.799Z,3.38
2023-01-02T11:26:53.787Z,2.90
2023-01-02T11:29:33.764Z,1.77
2023-01-02T11:32:04.027Z,5.00
2023-01-02T11:34:37.583Z,5.43
2023-01-02T11:37:17.415Z,3.03
2023-01-02T11:39:58.983Z,2.13
2023-01-02T11:42:58.989Z,2.10
2023-01-02T11:45:27.363Z,4.40
2023-01-02T11:48:00.700Z,3.38
2023-01-02T11:50:30.769Z,4.55
2023-01-02T11:52:59.820Z,4.28
2023-01-02T11:55:37.074Z,9.15
2023-01-02T11:58:36.316Z,3.60
2023-01-02T12:01:13.518Z,4.45
2023-01-02T12:03:41.126Z,3.97
2023-01-02T12:06:17.011Z,6.43
2023-01-02T12:09:07.098Z,7.13
2023-01-02T12:11:58.647Z,4.38
2023-01-02T12:15:04.620Z,4.65
2023-01-02T12:17:42.280Z,5.72
2023-01-02T12:20:24.091Z,6.10
2023-01-02T12:23:05.941Z,5.63
2023-01-02T12:25:33.168Z,4.72
2023-01-02T12:28:24.615Z,7.30
2023-01-02T12:31:13.519Z,11.77
2023-01-02T12:33:55.454Z,8.00
2023-01-02T12:36:28.737Z,4.38
2023-01-02T12:38:59.566Z,6.68
2023-01-02T12:42:02.078Z,4.50
2023-01-02T12:44:46.794Z,7.18
2023-01-02T12:47:38.745Z,5.68
2023-01-02T12:50:33.507Z,12.25
2023-01-02T12:53:27.541Z,7.35
2023-01-02T12:56:13.535Z,4.47
2023-01-02T12:59:18.224Z,7.55
2023-01-02T13:01:55.696Z,10.02
2023-01-02T13:04:26.711Z,7.85
2023-01-02T13:07:02.798Z,6.65
2023-01-02T13:09:40.623Z,6.03
2023-01-02T13:12:14.964Z,11.52
2023-01-02T13:14:58.727Z,9.50
2023-01-02T13:17:44.823Z,4.65
2023-01-02T13:20:24.476Z,9.18
2023-01-02T13:23:17.884Z,9.38
2023-01-02T13:25:48.033Z,9.98
2023-01-02T13:28:17.361Z,11.55
2023-01-02T13:31:35.824Z,11.20
2023-01-02T13:33:54.684Z,7.97
2023-01-02T13:36:28.898Z,9.18
2023-01-02T13:39:03.600Z,6.80
2023-01-02T13:41:58.164Z,7.95
2023-01-02T13:44:36.732Z,8.13
2023-01-02T13:47:25.650Z,9.80
2023-01-02T13:50:13.148Z,6.13
2023-01-02T13:52:41.631Z,14.48
2023-01-02T13:55:31.565Z,9.80
2023-01-02T13:58:15.767Z,12.02
2023-01-02T14:00:45.852Z,8.75
2023-01-02T14:03:35.056Z,8.52
2023-01-02T14:06:28.939Z,15.38
2023-01-02T14:09:05.687Z,8.02
2023-01-02T14:11:56.083Z,7.55
2023-01-02T14:14:46.315Z,12.27
2023-01-02T14:17:32.383Z,12.80
2023-01-02T14:20:31.086Z,8.38
2023-01-02T14:23:05.826Z,6.53
2023-01-02T14:25:45.368Z,7.50
2023-01-02T14:28:21.783Z,12.20
2023-01-02T14:30:50.043Z,14.90
2023-01-02T14:33:36.480Z,9.75
2023-01-02T14:36:10.441Z,14.73
2023-01-02T14:38:43.213Z,9.82
2023-01-02T14:42:10.382Z,13.52
2023-01-02T14:44:55.259Z,11.68
2023-01-02T14:48:06.777Z,13.45
2023-01-02T14:50:36.496Z,14.35
2023-01-02T14:53:09.285Z,17.30
2023-01-02T14:55:42.372Z,14.85
2023-01-02T14:58:25.005Z,12.25
2023-01-02T15:00:57.792Z,10.05
2023-01-02T15:03:42.712Z,16.35
2023-01-02T15:06:26.618Z,14.38
2023-01-02T15:09:00.840Z,11.60
2023-01-02T15:11:46.895Z,15.05
2023-01-02T15:14:22.053Z,8.82
2023-01-02T15:16:53.872Z,15.98
2023-01-02T15:19:33.372Z,18.25
2023-01-02T15:22:09.876Z,20.25
2023-01-02T15:24:37.663Z,8.20
2023-01-02T15:27:23.028Z,10.57
2023-01-02T15:29:53.950Z,14.63
2023-01-02T15:32:24.622Z,9.18
2023-01-02T15:37:22.393Z,14.70
2023-01-02T15:39:53.976Z,17.30
2023-01-02T15:42:45.994Z,10.48
2023-01-02T15:45:17.609Z,25.70
2023-01-02T15:47:48.932Z,15.60
2023-01-02T15:50:21.196Z,13.88
2023-01-02T15:52:58.500Z,13.10
2023-01-02T15:55:33.578Z,11.10
2023-01-02T15:58:20.661Z,12.93
2023-01-02T16:00:48.046Z,16.00
2023-01-02T16:04:00.686Z,14.82
2023-01-02T16:06:42.773Z,11.13
2023-01-02T16:09:24.720Z,9.90
2023-01-02T16:11:55.471Z,15.07
2023-01-02T16:17:22.265Z,9.95
2023-01-02T16:19:54.704Z,8.80
2023-01-02T16:22:49.871Z,9.45
2023-01-02T16:25:24.681Z,11.75
2023-01-02T16:28:34.155Z,10.60
2023-01-02T16:31:13.263Z,13.57
2023-01-02T16:33:44.050Z,9.40
2023-01-02T16:39:00.189Z,16.20
2023-01-02T16:41:37.803Z,9.52
2023-01-02T16:44:14.673Z,13.15
2023-01-02T16:46:45.354Z,12.23
2023-01-02T16:49:21.757Z,14.18
2023-01-02T16:51:54.952Z,10.73
2023-01-02T16:54:22.761Z,13.13
2023-01-02T16:56:50.057Z,13.02
2023-01-02T16:59:17.422Z,8.45
2023-01-02T17:01:45.209Z,14.18
2023-01-02T17:04:14.217Z,8.15
2023-01-02T17:06:41.610Z,12.15
2023-01-02T17:09:10.157Z,11.15
2023-01-02T17:11:38.127Z,11.93
2023-01-02T17:14:05.745Z,9.85
2023-01-02T17:16:33.194Z,15.35
2023-01-02T17:19:00.510Z,14.30
2023-01-02T17:21:32.770Z,20.70
2023-01-02T17:24:00.329Z,12.50
2023-01-02T17:26:27.693Z,15.32
2023-01-02T17:28:54.979Z,13.27
2023-01-02T17:31:25.699Z,12.93
2023-01-02T17:33:53.409Z,8.95
2023-01-02T17:36:20.654Z,17.42
2023-01-02T17:38:48.287Z,14.20
2023-01-02T17:41:15.482Z,12.73
2023-01-02T17:44:02.559Z,23.27
2023-01-02T17:49:18.052Z,21.00
2023-01-02T17:51:45.470Z,14.48
2023-01-02T17:54:12.940Z,11.00
2023-01-02T17:56:42.812Z,10.18
2023-01-02T17:59:10.120Z,11.35
2023-01-02T18:01:38.811Z,12.82
2023-01-02T18:04:06.447Z,16.05
2023-01-02T18:06:34.348Z,11.35
2023-01-02T18:09:02.353Z,10.23
2023-01-02T18:11:29.775Z,15.02
2023-01-02T18:13:57.997Z,15.77
2023-01-02T18:16:34.649Z,14.38
2023-01-02T18:19:04.412Z,13.15
2023-01-02T18:21:34.318Z,16.67
2023-01-02T18:24:07.210Z,18.40
2023-01-02T18:26:34.563Z,16.70
2023-01-02T18:29:09.748Z,10.82
2023-01-02T18:31:42.625Z,13.80
2023-01-02T18:34:46.894Z,17.95
2023-01-02T18:37:28.524Z,20.25
2023-01-02T18:39:57.651Z,12.55
2023-01-02T18:42:27.096Z,12.00
2023-01-02T18:44:56.875Z,15.38
2023-01-02T18:47:35.027Z,16.35
2023-01-02T18:50:24.275Z,7.97
2023-01-02T18:52:52.241Z,16.70
2023-01-02T18:55:29.515Z,10.98
2023-01-02T18:58:04.752Z,13.32
2023-01-02T19:00:34.933Z,13.57
2023-01-02T19:03:07.153Z,10.73
2023-01-02T19:05:46.565Z,9.73
2023-01-02T19:08:19.879Z,11.68
2023-01-02T19:10:56.332Z,13.88
2023-01-02T19:13:25.387Z,14.13
2023-01-02T19:15:59.797Z,10.70
2023-01-02T19:18:39.997Z,13.45
2023-01-02T19:21:13.280Z,17.88
2023-01-02T19:23:44.569Z,12.55
2023-01-02T19:26:20.032Z,10.70
2023-01-02T19:29:00.101Z,12.48
2023-01-02T19:31:41.422Z,15.18
2023-01-02T19:34:26.719Z,12.48
2023-01-02T19:37:18.611Z,11.18
2023-01-02T19:39:55.479Z,12.63
2023-01-02T19:42:24.823Z,11.15
2023-01-02T19:44:53.823Z,9.40
2023-01-02T19:47:23.212Z,17.60
2023-01-02T19:49:51.295Z,12.18
2023-01-02T19:52:20.063Z,14.02
2023-01-02T19:54:47.757Z,15.80
2023-01-02T19:57:17.941Z,15.05
2023-01-02T19:59:46.661Z,12.15
2023-01-02T20:02:16.264Z,12.02
2023-01-02T20:04:44.957Z,10.20
2023-01-02T20:07:13.918Z,10.63
2023-01-02T20:09:41.263Z,8.15
2023-01-02T20:12:28.036Z,10.43
2023-01-02T20:14:56.552Z,13.73
2023-01-02T20:17:27.017Z,10.68
2023-01-02T20:19:54.787Z,9.38
2023-01-02T20:22:22.732Z,9.50
2023-01-02T20:24:50.297Z,8.30
2023-01-02T20:27:17.661Z,13.57
2023-01-02T20:29:44.981Z,8.57
2023-01-02T20:32:12.296Z,12.30
2023-01-02T20:34:39.610Z,9.23
2023-01-02T20:37:07.264Z,8.07
2023-01-02T20:39:35.398Z,12.65
2023-01-02T20:42:07.944Z,7.65
2023-01-02T20:44:40.345Z,9.20
2023-01-02T20:47:08.291Z,11.02
2023-01-02T20:49:38.205Z,11.20
2023-01-02T20:52:06.052Z,8.52
2023-01-02T20:54:33.623Z,9.23
2023-01-02T20:57:01.260Z,12.93
2023-01-02T20:59:28.904Z,7.60
2023-01-02T21:01:56.488Z,9.25
2023-01-02T21:04:34.123Z,6.97
2023-01-02T21:07:05.442Z,9.17
2023-01-02T21:09:33.292Z,8.70
2023-01-02T21:12:01.211Z,12.52
2023-01-02T21:14:32.449Z,12.02
2023-01-02T21:17:05.159Z,12.32
2023-01-02T21:19:32.440Z,8.77
2023-01-02T21:21:59.954Z,7.70
2023-01-02T21:24:27.185Z,6.78
2023-01-02T21:26:54.613Z,8.50
2023-01-02T21:29:21.851Z,9.10
2023-01-02T21:31:49.418Z,8.25
2023-01-02T21:34:16.737Z,8.90
2023-01-02T21:36:44.103Z,8.00
2023-01-02T21:39:11.695Z,6.50
2023-01-02T21:41:57.387Z,14.02
2023-01-02T21:44:25.989Z,8.95
2023-01-02T21:46:53.291Z,8.25
2023-01-02T21:49:21.606Z,11.23
2023-01-02T21:51:48.888Z,6.32
2023-01-02T21:54:18.304Z,6.22
2023-01-02T21:56:45.764Z,9.75
2023-01-02T21:59:13.163Z,4.22
2023-01-02T22:01:40.594Z,14.50
2023-01-02T22:04:08.057Z,9.18
2023-01-02T22:06:36.689Z,8.68
2023-01-02T22:09:04.577Z,7.90
2023-01-02T22:11:50.451Z,8.55
2023-01-02T22:14:17.723Z,8.75
2023-01-02T22:16:45.133Z,5.40
2023-01-02T22:19:12.542Z,7.70
2023-01-02T22:21:40.168Z,10.18
2023-01-02T22:24:09.064Z,6.78
2023-01-02T22:26:37.999Z,4.68
2023-01-02T22:29:05.905Z,14.70
2023-01-02T22:31:33.922Z,5.25
2023-01-02T22:34:03.182Z,6.70
2023-01-02T22:36:31.737Z,3.97
2023-01-02T22:39:27.109Z,8.45
2023-01-02T22:41:51.313Z,8.35
2023-01-02T22:44:23.764Z,7.78
2023-01-02T22:46:55.258Z,6.13
2023-01-02T22:49:25.782Z,12.25
2023-01-02T22:52:07.146Z,7.85
2023-01-02T22:54:34.700Z,8.40
2023-01-02T22:57:02.373Z,11.07
2023-01-02T22:59:30.007Z,5.78
2023-01-02T23:01:57.318Z,12.25
2023-01-02T23:04:25.346Z,10.05
2023-01-02T23:07:22.618Z,5.63
2023-01-02T23:09:43.665Z,8.80
2023-01-02T23:12:11.979Z,8.07
2023-01-02T23:14:39.844Z,7.13
2023-01-02T23:17:25.807Z,5.10
2023-01-02T23:19:53.106Z,6.25
2023-01-02T23:22:20.446Z,10.93
2023-01-02T23:24:47.837Z,8.68
2023-01-02T23:27:15.409Z,7.57
2023-01-02T23:29:42.934Z,5.53
2023-01-02T23:32:10.840Z,8.27
2023-01-02T23:34:38.527Z,8.82
2023-01-02T23:37:06.043Z,7.20
2023-01-02T23:39:34.509Z,7.63
2023-01-02T23:42:02.375Z,11.35
2023-01-02T23:44:30.034Z,7.22
2023-01-02T23:46:57.408Z,7.65
2023-01-02T23:49:25.537Z,10.38
2023-01-02T23:51:53.853Z,12.35
2023-01-02T23:54:22.257Z,11.88
2023-01-02T23:56:53.071Z,13.18
